Aeroporto :
LOGIN :

Iscrizione | Disclaimer

   EN    FR    IT 

 










Sommario :    VFR   VFR Marginale   IFR   IFR Intensivo   IFR Molto Intensivo
Visibilità : 
Base nubi : 
>= 8 km
>= 3000ft
5 / 8 km
1000 / 3000 ft
1500m / 5 km
500 / 1000 ft
800 / 1500m
200 / 500 ft
< 800m
< 200 ft
Simboli :   Temporali  Nebbia  Neve Forte  Precipitazioni Forti  Vento > 20 kt
SIGMETs :   Varie  Temporali  Ghiacco  Turbolenza  Onda orograficha  Ceneri Vulcaniche






- Altitudine del aeroporto : 100 ft


EBDT - Schaffen

ULTIMO METAR :
  • 151755Z AUTO 16005KT 9999 BKN025/// OVC029/// 05/02 Q1002 BLU

METARs OBSOLETI :
  • 151744Z AUTO 18006KT 9999 BKN025/// OVC029/// 06/02 Q1002 BLU
  • 151725Z AUTO 17006KT 9999 BKN025/// BKN029/// 05/03 Q1002 BLU
  • 151713Z AUTO 16005KT 9999 BKN025/// OVC030/// 06/03 Q1001 BLU
  • 151655Z AUTO 15005KT 9999 SCT024/// OVC029/// 05/02 Q1001 WHT
  • 151644Z AUTO 15004KT 9999 SCT024/// OVC028/// 05/03 Q1001 WHT
  • 151555Z AUTO 11003KT 9999 FEW024/// BKN028/// BKN032/// 05/02 Q1001 BLU
  • 151538Z AUTO 10003KT 9999 OVC024/// 05/02 Q1001 WHT
  • 151525Z AUTO VRB02KT 9000 OVC025/// 05/02 Q1000 BLU

Previsioni scadute.



MetMap, La meteo Aeronautica in un colpo d'occhio ! - Copyright ORBIFLY Dicembre 2007 - Disclaimer

ORBIFLY MET'MAP TEAM :

Programmazione e sviluppo : Alexandra Zaïnal
Concezione e sviluppo : Baudouin d'Aumeries
Co-Programmazione e sviluppo : Marc-Olivier Méhu
Supporto tecnico e logistico : Manuel Goepfert
Aiuto per la traduzione : Arnaldo La Scala

Contatto : metmap@orbifly.com




FONTI E CREDITI :

   NOAA